createdAt,value
2018-11-25T00:00:23.064Z,24.43
2018-11-25T00:02:50.229Z,23.90
2018-11-25T00:05:17.329Z,25.00
2018-11-25T00:07:44.443Z,23.67
2018-11-25T00:10:11.538Z,23.37
2018-11-25T00:12:38.631Z,24.17
2018-11-25T00:15:07.294Z,22.27
2018-11-25T00:17:34.385Z,22.60
2018-11-25T00:20:01.508Z,21.43
2018-11-25T00:22:28.627Z,21.40
2018-11-25T00:24:55.721Z,22.37
2018-11-25T00:27:22.817Z,20.83
2018-11-25T00:29:49.920Z,22.02
2018-11-25T00:32:17.017Z,22.60
2018-11-25T00:34:44.131Z,23.40
2018-11-25T00:37:11.220Z,22.22
2018-11-25T00:39:38.296Z,22.40
2018-11-25T00:42:05.438Z,23.25
2018-11-25T00:44:32.521Z,21.33
2018-11-25T00:46:59.616Z,20.90
2018-11-25T00:49:26.717Z,23.60
2018-11-25T00:51:53.813Z,23.70
2018-11-25T00:54:20.921Z,22.37
2018-11-25T00:56:48.052Z,21.33
2018-11-25T00:59:15.137Z,23.70
2018-11-25T01:01:42.226Z,24.85
2018-11-25T01:04:09.343Z,23.20
2018-11-25T01:06:36.447Z,25.75
2018-11-25T01:09:06.654Z,22.93
2018-11-25T01:11:33.753Z,21.17
2018-11-25T01:14:00.859Z,23.35
2018-11-25T01:16:28.017Z,23.15
2018-11-25T01:18:55.129Z,21.40
2018-11-25T01:21:22.223Z,25.20
2018-11-25T01:23:49.309Z,22.67
2018-11-25T01:26:16.436Z,25.65
2018-11-25T01:28:43.541Z,24.63
2018-11-25T01:31:10.646Z,22.75
2018-11-25T01:33:37.745Z,22.85
2018-11-25T01:36:05.246Z,24.72
2018-11-25T01:38:32.341Z,23.02
2018-11-25T01:40:59.442Z,24.27
2018-11-25T01:43:26.542Z,23.42
2018-11-25T01:45:53.628Z,21.87
2018-11-25T01:48:20.716Z,21.80
2018-11-25T01:50:47.804Z,22.90
2018-11-25T01:53:14.909Z,25.15
2018-11-25T01:55:42.017Z,25.55
2018-11-25T01:58:09.133Z,23.57
2018-11-25T02:00:36.233Z,24.50
2018-11-25T02:03:03.387Z,23.67
2018-11-25T02:05:30.482Z,27.17
2018-11-25T02:07:57.589Z,23.32
2018-11-25T02:10:24.681Z,21.70
2018-11-25T02:12:51.781Z,25.45
2018-11-25T02:15:18.894Z,25.52
2018-11-25T02:17:46.002Z,24.50
2018-11-25T02:20:27.694Z,22.13
2018-11-25T02:22:55.423Z,24.67
2018-11-25T02:25:22.544Z,24.98
2018-11-25T02:27:49.676Z,25.65
2018-11-25T02:30:18.670Z,21.65
2018-11-25T02:32:46.209Z,24.40
2018-11-25T02:35:14.216Z,25.02
2018-11-25T02:37:41.377Z,26.20
2018-11-25T02:40:10.737Z,26.48
2018-11-25T02:42:37.872Z,22.70
2018-11-25T02:45:09.980Z,26.20
2018-11-25T02:47:37.112Z,27.13
2018-11-25T02:50:06.322Z,28.20
2018-11-25T02:52:33.408Z,27.48
2018-11-25T02:55:00.508Z,27.07
2018-11-25T02:57:27.590Z,25.52
2018-11-25T02:59:54.677Z,25.52
2018-11-25T03:02:21.757Z,24.55
2018-11-25T03:04:48.864Z,26.35
2018-11-25T03:07:15.977Z,28.20
2018-11-25T03:09:43.064Z,25.37
2018-11-25T03:12:10.182Z,23.12
2018-11-25T03:14:37.278Z,24.45
2018-11-25T03:17:04.457Z,22.35
2018-11-25T03:19:31.538Z,21.45
2018-11-25T03:21:58.658Z,21.13
2018-11-25T03:24:25.831Z,22.40
2018-11-25T03:26:52.944Z,21.00
2018-11-25T03:29:20.046Z,19.82
2018-11-25T03:31:47.136Z,21.93
2018-11-25T03:34:14.297Z,20.40
2018-11-25T03:36:41.338Z,20.15
2018-11-25T03:39:08.432Z,20.37
2018-11-25T03:41:35.557Z,20.30
2018-11-25T03:44:02.651Z,21.48
2018-11-25T03:46:29.756Z,20.80
2018-11-25T03:48:56.838Z,20.15
2018-11-25T03:51:23.936Z,22.70
2018-11-25T03:53:51.022Z,21.02
2018-11-25T03:56:18.156Z,19.48
2018-11-25T03:58:45.234Z,21.15
2018-11-25T04:01:12.327Z,21.07
2018-11-25T04:03:39.472Z,20.30
2018-11-25T04:06:06.577Z,19.90
2018-11-25T04:08:33.689Z,20.37
2018-11-25T04:11:00.773Z,22.90
2018-11-25T04:13:27.869Z,20.40
2018-11-25T04:15:54.956Z,20.15
2018-11-25T04:18:22.054Z,21.48
2018-11-25T04:20:49.132Z,21.80
2018-11-25T04:23:16.219Z,20.17
2018-11-25T04:25:43.313Z,19.90
2018-11-25T04:28:10.398Z,21.55
2018-11-25T04:30:37.501Z,20.15
2018-11-25T04:33:04.725Z,21.42
2018-11-25T04:35:31.852Z,20.70
2018-11-25T04:37:58.964Z,19.75
2018-11-25T04:40:26.041Z,20.10
2018-11-25T04:42:53.169Z,18.02
2018-11-25T04:45:20.272Z,18.82
2018-11-25T04:47:47.377Z,18.57
2018-11-25T04:50:16.378Z,18.05
2018-11-25T04:52:43.527Z,18.75
2018-11-25T04:55:10.635Z,19.60
2018-11-25T04:57:37.749Z,19.17
2018-11-25T05:00:11.721Z,17.50
2018-11-25T05:02:39.589Z,19.20
2018-11-25T05:05:09.104Z,21.65
2018-11-25T05:07:36.206Z,20.65
2018-11-25T05:10:04.849Z,19.37
2018-11-25T05:12:31.945Z,18.48
2018-11-25T05:14:59.041Z,21.50
2018-11-25T05:17:26.132Z,19.10
2018-11-25T05:19:53.234Z,20.37
2018-11-25T05:22:20.322Z,20.05
2018-11-25T05:24:47.406Z,19.02
2018-11-25T05:27:14.482Z,22.93
2018-11-25T05:29:41.579Z,20.27
2018-11-25T05:32:08.672Z,23.90
2018-11-25T05:34:35.757Z,18.80
2018-11-25T05:37:02.868Z,20.43
2018-11-25T05:39:29.973Z,19.07
2018-11-25T05:41:57.077Z,19.50
2018-11-25T05:44:24.191Z,19.12
2018-11-25T05:46:51.289Z,18.20
2018-11-25T05:49:18.377Z,17.77
2018-11-25T05:51:45.494Z,18.17
2018-11-25T05:54:12.581Z,20.77
2018-11-25T05:56:39.672Z,18.90
2018-11-25T05:59:06.793Z,19.60
2018-11-25T06:01:33.894Z,21.37
2018-11-25T06:04:00.980Z,19.15
2018-11-25T06:06:28.087Z,19.85
2018-11-25T06:08:55.156Z,19.92
2018-11-25T06:11:22.245Z,19.30
2018-11-25T06:13:49.341Z,20.52
2018-11-25T06:16:16.546Z,19.62
2018-11-25T06:18:43.642Z,18.02
2018-11-25T06:21:10.725Z,18.30
2018-11-25T06:23:37.809Z,18.95
2018-11-25T06:26:05.365Z,16.73
2018-11-25T06:28:32.437Z,19.65
2018-11-25T06:30:59.586Z,18.82
2018-11-25T06:33:26.685Z,16.85
2018-11-25T06:35:53.773Z,18.40
2018-11-25T06:38:20.864Z,17.55
2018-11-25T06:40:47.949Z,16.67
2018-11-25T06:43:15.041Z,17.02
2018-11-25T06:45:42.126Z,20.72
2018-11-25T06:48:09.237Z,17.42
2018-11-25T06:50:36.331Z,17.95
2018-11-25T06:53:03.544Z,16.15
2018-11-25T06:55:30.664Z,19.62
2018-11-25T06:57:57.805Z,21.20
2018-11-25T07:00:25.317Z,20.27
2018-11-25T07:02:52.696Z,22.30
2018-11-25T07:05:19.794Z,21.20
2018-11-25T07:07:46.892Z,18.15
2018-11-25T07:10:15.104Z,21.65
2018-11-25T07:12:42.332Z,18.37
2018-11-25T07:15:11.027Z,21.68
2018-11-25T07:17:38.116Z,21.62
2018-11-25T07:20:07.160Z,21.23
2018-11-25T07:22:34.245Z,20.65
2018-11-25T07:25:01.334Z,19.50
2018-11-25T07:27:28.425Z,18.65
2018-11-25T07:29:55.508Z,17.75
2018-11-25T07:32:22.617Z,18.52
2018-11-25T07:34:49.708Z,19.25
2018-11-25T07:37:16.817Z,22.55
2018-11-25T07:39:43.908Z,20.25
2018-11-25T07:42:10.997Z,19.23
2018-11-25T07:44:38.090Z,18.17
2018-11-25T07:47:05.198Z,17.48
2018-11-25T07:49:32.292Z,19.53
2018-11-25T07:51:59.410Z,24.45
2018-11-25T07:54:26.513Z,20.35
2018-11-25T07:56:53.619Z,21.77
2018-11-25T07:59:20.721Z,18.98
2018-11-25T08:01:47.815Z,20.70
2018-11-25T08:04:14.921Z,20.15
2018-11-25T08:06:42.012Z,18.45
2018-11-25T08:09:09.134Z,20.77
2018-11-25T08:11:36.229Z,19.23
2018-11-25T08:14:03.427Z,20.75
2018-11-25T08:16:30.533Z,19.67
2018-11-25T08:18:57.618Z,20.90
2018-11-25T08:21:24.725Z,20.12
2018-11-25T08:23:51.957Z,19.40
2018-11-25T08:26:19.077Z,20.77
2018-11-25T08:28:46.182Z,20.43
2018-11-25T08:31:13.285Z,20.10
2018-11-25T08:33:40.380Z,20.85
2018-11-25T08:36:07.481Z,21.37
2018-11-25T08:38:34.566Z,21.07
2018-11-25T08:41:01.650Z,19.98
2018-11-25T08:43:28.745Z,22.50
2018-11-25T08:45:55.839Z,20.27
2018-11-25T08:48:22.938Z,22.52
2018-11-25T08:50:50.045Z,23.05
2018-11-25T08:53:17.125Z,23.47
2018-11-25T08:55:44.208Z,21.77
2018-11-25T08:58:15.922Z,20.77
2018-11-25T09:00:42.997Z,21.97
2018-11-25T09:03:10.096Z,22.50
2018-11-25T09:05:37.190Z,22.52
2018-11-25T09:08:04.337Z,20.27
2018-11-25T09:10:31.469Z,25.35
2018-11-25T09:12:58.555Z,23.38
2018-11-25T09:15:28.829Z,23.42
2018-11-25T09:17:55.969Z,24.60
2018-11-25T09:20:23.077Z,25.25
2018-11-25T09:22:51.033Z,25.10
2018-11-25T09:25:22.146Z,23.47
2018-11-25T09:27:49.255Z,24.90
2018-11-25T09:30:20.509Z,23.90
2018-11-25T09:32:47.633Z,21.02
2018-11-25T09:35:14.834Z,24.43
2018-11-25T09:37:41.927Z,23.10
2018-11-25T09:40:11.919Z,23.35
2018-11-25T09:42:39.010Z,23.02
2018-11-25T09:45:10.433Z,21.80
2018-11-25T09:47:37.568Z,22.65
2018-11-25T09:50:07.183Z,20.80
2018-11-25T09:52:34.288Z,21.90
2018-11-25T09:55:01.382Z,21.60
2018-11-25T09:57:28.504Z,20.62
2018-11-25T09:59:55.607Z,22.40
2018-11-25T10:02:22.717Z,20.97
2018-11-25T10:04:49.820Z,20.52
2018-11-25T10:07:16.947Z,20.50
2018-11-25T10:09:44.038Z,21.77
2018-11-25T10:12:11.125Z,21.75
2018-11-25T10:14:38.217Z,21.30
2018-11-25T10:17:05.334Z,21.00
2018-11-25T10:19:32.472Z,20.23
2018-11-25T10:21:59.589Z,22.17
2018-11-25T10:24:26.697Z,21.33
2018-11-25T10:26:53.785Z,21.45
2018-11-25T10:29:20.880Z,22.13
2018-11-25T10:31:47.969Z,21.48
2018-11-25T10:34:15.085Z,22.15
2018-11-25T10:36:42.181Z,21.62
2018-11-25T10:39:09.294Z,23.50
2018-11-25T10:41:36.401Z,22.02
2018-11-25T10:44:03.757Z,21.60
2018-11-25T10:46:30.881Z,22.20
2018-11-25T10:48:58.041Z,23.07
2018-11-25T10:51:25.085Z,23.98
2018-11-25T10:53:52.181Z,22.05
2018-11-25T10:56:19.289Z,21.75
2018-11-25T10:58:46.387Z,23.15
2018-11-25T11:01:19.066Z,23.67
2018-11-25T11:03:51.884Z,22.87
2018-11-25T11:06:24.754Z,21.10
2018-11-25T11:08:51.873Z,24.47
2018-11-25T11:11:19.789Z,22.82
2018-11-25T11:13:46.904Z,22.77
2018-11-25T11:16:13.997Z,23.57
2018-11-25T11:18:41.091Z,23.05
2018-11-25T11:21:08.204Z,22.58
2018-11-25T11:23:35.358Z,22.80
2018-11-25T11:26:07.055Z,23.92
2018-11-25T11:28:29.701Z,21.05
2018-11-25T11:30:56.883Z,22.63
2018-11-25T11:33:23.989Z,23.85
2018-11-25T11:35:51.121Z,23.45
2018-11-25T11:38:18.213Z,22.65
2018-11-25T11:40:45.300Z,23.47
2018-11-25T11:43:12.381Z,23.38
2018-11-25T11:45:39.493Z,22.85
2018-11-25T11:48:06.597Z,22.20
2018-11-25T11:50:33.716Z,21.20
2018-11-25T11:53:00.825Z,23.90
2018-11-25T11:55:27.949Z,23.10
2018-11-25T11:57:55.041Z,22.67
2018-11-25T12:00:23.629Z,23.67
2018-11-25T12:02:50.892Z,22.77
2018-11-25T12:05:18.030Z,23.00
2018-11-25T12:07:45.134Z,23.57
2018-11-25T12:10:13.264Z,25.68
2018-11-25T12:12:40.365Z,22.58
2018-11-25T12:15:17.182Z,21.57
2018-11-25T12:17:44.285Z,24.25
2018-11-25T12:20:11.513Z,26.23
2018-11-25T12:22:38.650Z,26.37
2018-11-25T12:25:09.483Z,25.45
2018-11-25T12:27:36.629Z,25.45
2018-11-25T12:30:05.205Z,25.70
2018-11-25T12:32:32.302Z,25.48
2018-11-25T12:34:59.381Z,24.93
2018-11-25T12:37:26.487Z,24.07
2018-11-25T12:39:53.568Z,23.30
2018-11-25T12:42:20.654Z,25.10
2018-11-25T12:44:47.748Z,24.20
2018-11-25T12:47:14.849Z,22.60
2018-11-25T12:49:41.965Z,22.70
2018-11-25T12:52:09.051Z,23.00
2018-11-25T12:54:36.212Z,23.67
2018-11-25T12:57:03.356Z,23.20
2018-11-25T12:59:30.489Z,23.50
2018-11-25T13:01:57.584Z,23.37
2018-11-25T13:04:27.923Z,23.02
2018-11-25T13:06:51.778Z,23.37
2018-11-25T13:09:18.873Z,24.83
2018-11-25T13:11:52.333Z,22.65
2018-11-25T13:14:13.170Z,23.97
2018-11-25T13:16:40.256Z,22.53
2018-11-25T13:19:07.401Z,24.73
2018-11-25T13:21:34.492Z,24.57
2018-11-25T13:24:01.598Z,23.20
2018-11-25T13:26:28.746Z,24.30
2018-11-25T13:28:55.898Z,26.23
2018-11-25T13:31:22.981Z,25.70
2018-11-25T13:33:50.077Z,26.25
2018-11-25T13:36:17.249Z,25.75
2018-11-25T13:38:44.341Z,25.88
2018-11-25T13:41:11.466Z,25.25
2018-11-25T13:43:38.572Z,23.77
2018-11-25T13:46:05.737Z,24.27
2018-11-25T13:48:32.835Z,25.15
2018-11-25T13:51:07.021Z,25.55
2018-11-25T13:53:34.153Z,25.60
2018-11-25T13:56:01.314Z,25.75
2018-11-25T13:58:28.441Z,25.52
2018-11-25T14:00:55.556Z,24.90
2018-11-25T14:03:28.844Z,24.12
2018-11-25T14:05:55.965Z,23.90
2018-11-25T14:08:23.093Z,25.72
2018-11-25T14:10:57.238Z,27.33
2018-11-25T14:13:24.314Z,26.73
2018-11-25T14:15:51.413Z,24.98
2018-11-25T14:18:18.516Z,26.90
2018-11-25T14:20:45.587Z,25.23
2018-11-25T14:23:12.680Z,25.52
2018-11-25T14:25:40.605Z,24.35
2018-11-25T14:28:09.290Z,24.07
2018-11-25T14:30:36.389Z,23.92
2018-11-25T14:33:03.505Z,24.27
2018-11-25T14:35:30.581Z,25.48
2018-11-25T14:37:57.683Z,27.35
2018-11-25T14:40:24.768Z,23.85
2018-11-25T14:42:51.873Z,24.05
2018-11-25T14:45:18.972Z,24.30
2018-11-25T14:47:46.140Z,24.63
2018-11-25T14:50:15.585Z,24.43
2018-11-25T14:52:43.878Z,23.98
2018-11-25T14:55:11.939Z,24.15
2018-11-25T14:57:39.325Z,25.57
2018-11-25T15:00:17.140Z,25.97
2018-11-25T15:02:48.638Z,26.57
2018-11-25T15:05:26.571Z,25.50
2018-11-25T15:07:53.704Z,24.77
2018-11-25T15:10:20.837Z,25.23
2018-11-25T15:12:49.334Z,26.82
2018-11-25T15:15:15.990Z,26.15
2018-11-25T15:17:43.886Z,26.37
2018-11-25T15:20:11.725Z,23.38
2018-11-25T15:22:39.217Z,25.62
2018-11-25T15:25:08.869Z,27.55
2018-11-25T15:27:35.966Z,22.67
2018-11-25T15:30:03.626Z,25.25
2018-11-25T15:32:30.737Z,24.27
2018-11-25T15:34:57.844Z,25.12
2018-11-25T15:37:24.955Z,24.82
2018-11-25T15:39:52.074Z,24.90
2018-11-25T15:42:19.197Z,24.77
2018-11-25T15:44:46.290Z,23.77
2018-11-25T15:47:13.434Z,24.15
2018-11-25T15:49:40.538Z,25.00
2018-11-25T15:52:07.658Z,26.23
2018-11-25T15:54:34.745Z,25.90
2018-11-25T15:57:01.841Z,25.97
2018-11-25T15:59:29.007Z,24.40
2018-11-25T16:01:56.174Z,25.85
2018-11-25T16:04:23.266Z,24.98
2018-11-25T16:06:50.388Z,23.75
2018-11-25T16:09:17.490Z,25.50
2018-11-25T16:11:44.569Z,24.72
2018-11-25T16:14:11.672Z,26.30
2018-11-25T16:16:38.773Z,26.10
2018-11-25T16:19:05.898Z,25.40
2018-11-25T16:21:32.997Z,26.42
2018-11-25T16:24:00.118Z,25.70
2018-11-25T16:26:30.796Z,24.98
2018-11-25T16:29:00.521Z,25.02
2018-11-25T16:31:27.608Z,25.40
2018-11-25T16:33:54.709Z,26.25
2018-11-25T16:36:21.806Z,25.62
2018-11-25T16:38:48.933Z,24.70
2018-11-25T16:41:16.039Z,25.82
2018-11-25T16:43:43.126Z,28.67
2018-11-25T16:46:10.242Z,24.90
2018-11-25T16:48:37.338Z,26.02
2018-11-25T16:51:04.767Z,26.17
2018-11-25T16:53:31.875Z,27.75
2018-11-25T16:55:58.983Z,26.68
2018-11-25T16:58:26.093Z,25.72
2018-11-25T17:00:53.198Z,26.82
2018-11-25T17:03:20.314Z,27.37
2018-11-25T17:05:49.287Z,25.02
2018-11-25T17:08:21.689Z,24.57
2018-11-25T17:10:48.789Z,26.00
2018-11-25T17:13:15.918Z,24.05
2018-11-25T17:15:43.034Z,23.85
2018-11-25T17:18:10.154Z,24.82
2018-11-25T17:20:37.240Z,23.75
2018-11-25T17:23:04.930Z,23.87
2018-11-25T17:25:32.058Z,22.65
2018-11-25T17:27:59.146Z,24.02
2018-11-25T17:30:26.253Z,19.00
2018-11-25T17:32:53.440Z,22.50
2018-11-25T17:35:22.278Z,20.88
2018-11-25T17:37:49.382Z,23.05
2018-11-25T17:40:16.489Z,22.80
2018-11-25T17:42:43.604Z,21.65
2018-11-25T17:45:11.961Z,23.27
2018-11-25T17:47:39.187Z,23.75
2018-11-25T17:50:11.097Z,24.30
2018-11-25T17:52:38.203Z,23.27
2018-11-25T17:55:07.365Z,23.25
2018-11-25T17:57:34.469Z,24.32
2018-11-25T18:00:01.623Z,24.67
2018-11-25T18:02:28.773Z,23.00
2018-11-25T18:04:55.902Z,22.87
2018-11-25T18:07:23.006Z,21.95
2018-11-25T18:09:50.104Z,23.25
2018-11-25T18:12:17.189Z,22.80
2018-11-25T18:14:44.277Z,23.60
2018-11-25T18:17:11.399Z,21.62
2018-11-25T18:19:38.497Z,23.83
2018-11-25T18:22:10.290Z,21.93
2018-11-25T18:24:37.393Z,24.50
2018-11-25T18:27:04.926Z,25.17
2018-11-25T18:29:32.006Z,24.70
2018-11-25T18:31:59.218Z,25.68
2018-11-25T18:34:26.304Z,21.52
2018-11-25T18:36:53.389Z,24.25
2018-11-25T18:39:20.498Z,23.77
2018-11-25T18:41:47.602Z,26.07
2018-11-25T18:44:14.717Z,25.50
2018-11-25T18:46:46.526Z,25.65
2018-11-25T18:49:09.874Z,23.25
2018-11-25T18:51:37.028Z,25.55
2018-11-25T18:54:05.687Z,25.52
2018-11-25T18:56:32.732Z,22.65
2018-11-25T18:58:59.832Z,25.08
2018-11-25T19:02:02.393Z,26.55
2018-11-25T19:04:29.472Z,26.95
2018-11-25T19:06:56.598Z,24.87
2018-11-25T19:09:23.685Z,28.38
2018-11-25T19:11:50.788Z,26.87
2018-11-25T19:14:17.882Z,26.75
2018-11-25T19:16:44.987Z,27.35
2018-11-25T19:19:12.135Z,27.95
2018-11-25T19:21:39.233Z,25.68
2018-11-25T19:24:06.329Z,31.50
2018-11-25T19:26:33.425Z,28.17
2018-11-25T19:29:00.539Z,27.87
2018-11-25T19:31:27.637Z,27.52
2018-11-25T19:33:54.737Z,28.05
2018-11-25T19:36:21.845Z,30.52
2018-11-25T19:38:48.945Z,26.52
2018-11-25T19:41:16.044Z,30.25
2018-11-25T19:43:43.129Z,29.87
2018-11-25T19:46:10.248Z,27.48
2018-11-25T19:48:37.340Z,31.27
2018-11-25T19:51:05.189Z,28.92
2018-11-25T19:53:32.290Z,28.00
2018-11-25T19:55:59.409Z,31.23
2018-11-25T19:58:26.513Z,28.87
2018-11-25T20:00:53.610Z,27.58
2018-11-25T20:03:20.721Z,27.70
2018-11-25T20:05:47.821Z,27.02
2018-11-25T20:08:14.925Z,27.15
2018-11-25T20:10:42.029Z,28.67
2018-11-25T20:13:09.579Z,28.80
2018-11-25T20:15:36.964Z,28.23
2018-11-25T20:18:04.891Z,27.90
2018-11-25T20:20:32.008Z,27.42
2018-11-25T20:22:59.101Z,25.97
2018-11-25T20:25:26.241Z,28.10
2018-11-25T20:27:54.561Z,27.17
2018-11-25T20:30:25.450Z,26.75
2018-11-25T20:32:58.193Z,27.80
2018-11-25T20:35:25.290Z,27.52
2018-11-25T20:37:57.997Z,28.00
2018-11-25T20:40:25.113Z,26.20
2018-11-25T20:42:52.225Z,27.02
2018-11-25T20:45:26.293Z,26.68
2018-11-25T20:47:54.333Z,28.87
2018-11-25T20:50:21.452Z,27.48
2018-11-25T20:52:54.117Z,28.10
2018-11-25T20:55:21.265Z,30.30
2018-11-25T20:57:48.357Z,27.48
2018-11-25T21:00:16.721Z,26.85
2018-11-25T21:02:43.810Z,28.95
2018-11-25T21:05:11.853Z,29.72
2018-11-25T21:07:38.973Z,29.15
2018-11-25T21:10:08.421Z,28.80
2018-11-25T21:12:35.519Z,28.67
2018-11-25T21:15:02.658Z,27.48
2018-11-25T21:17:29.795Z,30.10
2018-11-25T21:19:56.880Z,29.75
2018-11-25T21:22:23.965Z,31.10
2018-11-25T21:24:51.061Z,30.32
2018-11-25T21:27:18.157Z,32.13
2018-11-25T21:29:45.257Z,29.30
2018-11-25T21:32:12.360Z,29.60
2018-11-25T21:34:39.449Z,27.32
2018-11-25T21:37:06.580Z,29.87
2018-11-25T21:39:33.673Z,30.65
2018-11-25T21:42:00.769Z,30.17
2018-11-25T21:44:27.868Z,28.38
2018-11-25T21:46:54.952Z,31.33
2018-11-25T21:49:22.050Z,27.50
2018-11-25T21:51:49.149Z,28.25
2018-11-25T21:54:16.237Z,28.87
2018-11-25T21:56:43.340Z,28.47
2018-11-25T21:59:10.430Z,29.12
2018-11-25T22:01:37.510Z,29.77
2018-11-25T22:04:05.099Z,29.32
2018-11-25T22:06:32.203Z,30.77
2018-11-25T22:08:59.289Z,29.63
2018-11-25T22:11:26.449Z,30.55
2018-11-25T22:13:53.548Z,29.80
2018-11-25T22:16:20.672Z,29.05
2018-11-25T22:18:47.770Z,30.72
2018-11-25T22:21:14.885Z,28.35
2018-11-25T22:23:41.978Z,30.20
2018-11-25T22:26:09.066Z,29.48
2018-11-25T22:28:36.162Z,32.42
2018-11-25T22:31:04.678Z,31.40
2018-11-25T22:33:31.773Z,30.32
2018-11-25T22:35:58.878Z,30.60
2018-11-25T22:38:25.994Z,30.37
2018-11-25T22:40:53.106Z,29.40
2018-11-25T22:43:20.194Z,29.82
2018-11-25T22:45:47.289Z,30.82
2018-11-25T22:48:14.392Z,29.72
2018-11-25T22:50:41.485Z,29.70
2018-11-25T22:53:08.589Z,28.62
2018-11-25T22:55:35.696Z,27.80
2018-11-25T22:58:02.811Z,29.07
2018-11-25T23:00:31.625Z,31.93
2018-11-25T23:02:58.765Z,29.92
2018-11-25T23:05:37.449Z,29.18
2018-11-25T23:08:04.789Z,30.27
2018-11-25T23:10:32.008Z,29.27
2018-11-25T23:12:59.117Z,29.48
2018-11-25T23:15:26.229Z,29.98
2018-11-25T23:17:53.354Z,29.87
2018-11-25T23:20:20.445Z,30.55
2018-11-25T23:22:47.561Z,32.42
2018-11-25T23:25:14.724Z,32.73
2018-11-25T23:27:41.838Z,29.70
2018-11-25T23:30:11.520Z,30.30
2018-11-25T23:32:38.715Z,29.20
2018-11-25T23:35:12.686Z,33.02
2018-11-25T23:37:39.804Z,30.95
2018-11-25T23:40:08.229Z,30.62
2018-11-25T23:42:35.389Z,31.95
2018-11-25T23:45:02.721Z,33.28
2018-11-25T23:47:29.808Z,29.65
2018-11-25T23:49:56.891Z,32.33
2018-11-25T23:52:23.981Z,29.37
2018-11-25T23:54:51.093Z,27.70
2018-11-25T23:57:18.189Z,27.20
2018-11-25T23:59:45.290Z,30.57
